sensor_id;sensor_type;location;lat;lon;timestamp;pressure;altitude;pressure_sealevel;temperature;humidity
13705;BME280;6924;52.122;9.952;2022-11-20T00:01:05;100298.47;;;-3.81;91.44
13705;BME280;6924;52.122;9.952;2022-11-20T00:03:32;100303.38;;;-3.83;91.43
13705;BME280;6924;52.122;9.952;2022-11-20T00:05:59;100298.06;;;-3.85;91.06
13705;BME280;6924;52.122;9.952;2022-11-20T00:08:27;100289.22;;;-3.93;91.39
13705;BME280;6924;52.122;9.952;2022-11-20T00:10:54;100292.44;;;-3.97;91.31
13705;BME280;6924;52.122;9.952;2022-11-20T00:13:20;100293.78;;;-4.06;91.27
13705;BME280;6924;52.122;9.952;2022-11-20T00:15:47;100293.78;;;-4.06;91.34
13705;BME280;6924;52.122;9.952;2022-11-20T00:18:14;100299.75;;;-4.09;91.23
13705;BME280;6924;52.122;9.952;2022-11-20T00:20:40;100293.81;;;-4.12;90.74
13705;BME280;6924;52.122;9.952;2022-11-20T00:23:06;100285.72;;;-4.07;90.14
13705;BME280;6924;52.122;9.952;2022-11-20T00:25:34;100293.66;;;-4.18;90.32
13705;BME280;6924;52.122;9.952;2022-11-20T00:28:01;100290.28;;;-4.20;91.03
13705;BME280;6924;52.122;9.952;2022-11-20T00:30:27;100295.19;;;-4.22;90.77
13705;BME280;6924;52.122;9.952;2022-11-20T00:32:56;100293.25;;;-4.21;89.90
13705;BME280;6924;52.122;9.952;2022-11-20T00:35:22;100292.03;;;-4.25;90.63
13705;BME280;6924;52.122;9.952;2022-11-20T00:37:49;100291.69;;;-4.36;90.61
13705;BME280;6924;52.122;9.952;2022-11-20T00:40:16;100298.66;;;-4.33;90.56
13705;BME280;6924;52.122;9.952;2022-11-20T00:42:43;100290.38;;;-4.33;90.07
13705;BME280;6924;52.122;9.952;2022-11-20T00:45:10;100290.84;;;-4.36;89.90
13705;BME280;6924;52.122;9.952;2022-11-20T00:47:37;100284.03;;;-4.33;90.07
13705;BME280;6924;52.122;9.952;2022-11-20T00:50:04;100288.91;;;-4.36;90.21
13705;BME280;6924;52.122;9.952;2022-11-20T00:52:30;100282.34;;;-4.41;90.46
13705;BME280;6924;52.122;9.952;2022-11-20T00:54:57;100280.69;;;-4.42;90.96
13705;BME280;6924;52.122;9.952;2022-11-20T00:57:23;100279.38;;;-4.40;90.55
13705;BME280;6924;52.122;9.952;2022-11-20T00:59:51;100287.88;;;-4.41;90.67
13705;BME280;6924;52.122;9.952;2022-11-20T01:02:18;100285.38;;;-4.43;90.64
13705;BME280;6924;52.122;9.952;2022-11-20T01:04:44;100289.00;;;-4.49;90.46
13705;BME280;6924;52.122;9.952;2022-11-20T01:07:11;100280.94;;;-4.50;90.82
13705;BME280;6924;52.122;9.952;2022-11-20T01:09:37;100278.38;;;-4.45;90.64
13705;BME280;6924;52.122;9.952;2022-11-20T01:12:04;100277.97;;;-4.49;90.81
13705;BME280;6924;52.122;9.952;2022-11-20T01:14:31;100278.97;;;-4.43;90.63
13705;BME280;6924;52.122;9.952;2022-11-20T01:16:59;100284.53;;;-4.50;90.04
13705;BME280;6924;52.122;9.952;2022-11-20T01:19:25;100269.53;;;-4.54;90.67
13705;BME280;6924;52.122;9.952;2022-11-20T01:21:53;100271.41;;;-4.54;90.53
13705;BME280;6924;52.122;9.952;2022-11-20T01:24:20;100274.13;;;-4.48;90.61
13705;BME280;6924;52.122;9.952;2022-11-20T01:26:49;100273.28;;;-4.48;90.47
13705;BME280;6924;52.122;9.952;2022-11-20T01:29:17;100275.88;;;-4.53;90.59
13705;BME280;6924;52.122;9.952;2022-11-20T01:31:44;100267.19;;;-4.57;91.26
13705;BME280;6924;52.122;9.952;2022-11-20T01:34:14;100260.88;;;-4.64;91.08
13705;BME280;6924;52.122;9.952;2022-11-20T01:36:42;100260.66;;;-4.63;91.09
13705;BME280;6924;52.122;9.952;2022-11-20T01:39:12;100258.69;;;-4.55;90.02
13705;BME280;6924;52.122;9.952;2022-11-20T01:41:39;100248.91;;;-4.51;90.10
13705;BME280;6924;52.122;9.952;2022-11-20T01:44:43;100247.19;;;-4.52;89.99
13705;BME280;6924;52.122;9.952;2022-11-20T01:47:14;100253.78;;;-4.53;90.27
13705;BME280;6924;52.122;9.952;2022-11-20T01:49:46;100250.19;;;-4.54;90.42
13705;BME280;6924;52.122;9.952;2022-11-20T01:52:16;100242.56;;;-4.59;90.08
13705;BME280;6924;52.122;9.952;2022-11-20T01:54:48;100241.09;;;-4.61;89.99
13705;BME280;6924;52.122;9.952;2022-11-20T01:57:16;100238.34;;;-4.61;89.99
13705;BME280;6924;52.122;9.952;2022-11-20T01:59:47;100227.09;;;-4.60;89.90
13705;BME280;6924;52.122;9.952;2022-11-20T02:02:17;100229.22;;;-4.62;90.19
13705;BME280;6924;52.122;9.952;2022-11-20T02:04:46;100223.06;;;-4.64;90.67
13705;BME280;6924;52.122;9.952;2022-11-20T02:07:13;100229.06;;;-4.67;90.90
13705;BME280;6924;52.122;9.952;2022-11-20T02:09:40;100223.13;;;-4.70;90.29
13705;BME280;6924;52.122;9.952;2022-11-20T02:12:06;100226.97;;;-4.71;90.40
13705;BME280;6924;52.122;9.952;2022-11-20T02:14:53;100228.84;;;-4.72;90.62
13705;BME280;6924;52.122;9.952;2022-11-20T02:17:19;100225.09;;;-4.78;90.06
13705;BME280;6924;52.122;9.952;2022-11-20T02:19:47;100222.13;;;-4.76;90.51
13705;BME280;6924;52.122;9.952;2022-11-20T02:22:18;100229.78;;;-4.78;90.49
13705;BME280;6924;52.122;9.952;2022-11-20T02:24:48;100225.75;;;-4.82;90.62
13705;BME280;6924;52.122;9.952;2022-11-20T02:27:16;100223.25;;;-4.90;91.33
13705;BME280;6924;52.122;9.952;2022-11-20T02:29:46;100225.13;;;-4.84;91.00
13705;BME280;6924;52.122;9.952;2022-11-20T02:32:18;100220.66;;;-4.85;91.18
13705;BME280;6924;52.122;9.952;2022-11-20T02:34:45;100217.28;;;-4.87;91.05
13705;BME280;6924;52.122;9.952;2022-11-20T02:37:12;100212.81;;;-4.82;90.78
13705;BME280;6924;52.122;9.952;2022-11-20T02:39:39;100216.66;;;-4.83;90.60
13705;BME280;6924;52.122;9.952;2022-11-20T02:42:07;100216.06;;;-4.91;91.13
13705;BME280;6924;52.122;9.952;2022-11-20T02:44:34;100211.34;;;-4.84;90.62
13705;BME280;6924;52.122;9.952;2022-11-20T02:47:00;100204.97;;;-4.85;90.73
13705;BME280;6924;52.122;9.952;2022-11-20T02:49:27;100203.91;;;-4.84;91.02
13705;BME280;6924;52.122;9.952;2022-11-20T02:51:53;100209.41;;;-4.84;90.64
13705;BME280;6924;52.122;9.952;2022-11-20T02:54:20;100198.16;;;-4.82;90.97
13705;BME280;6924;52.122;9.952;2022-11-20T02:56:46;100200.47;;;-4.79;91.05
13705;BME280;6924;52.122;9.952;2022-11-20T02:59:14;100200.94;;;-4.82;90.81
13705;BME280;6924;52.122;9.952;2022-11-20T03:01:41;100203.44;;;-4.81;91.07
13705;BME280;6924;52.122;9.952;2022-11-20T03:04:07;100203.44;;;-4.81;90.99
13705;BME280;6924;52.122;9.952;2022-11-20T03:06:34;100197.72;;;-4.79;91.13
13705;BME280;6924;52.122;9.952;2022-11-20T03:09:01;100203.00;;;-4.78;90.81
13705;BME280;6924;52.122;9.952;2022-11-20T03:11:28;100196.28;;;-4.88;90.95
13705;BME280;6924;52.122;9.952;2022-11-20T03:13:55;100199.06;;;-4.88;91.15
13705;BME280;6924;52.122;9.952;2022-11-20T03:16:23;100202.84;;;-4.83;90.75
13705;BME280;6924;52.122;9.952;2022-11-20T03:18:52;100200.09;;;-4.83;90.26
13705;BME280;6924;52.122;9.952;2022-11-20T03:21:18;100201.81;;;-4.88;90.60
13705;BME280;6924;52.122;9.952;2022-11-20T03:23:45;100197.13;;;-4.88;90.22
13705;BME280;6924;52.122;9.952;2022-11-20T03:26:13;100202.47;;;-4.93;90.22
13705;BME280;6924;52.122;9.952;2022-11-20T03:28:41;100195.50;;;-4.95;89.95
13705;BME280;6924;52.122;9.952;2022-11-20T03:31:09;100189.16;;;-4.96;89.83
13705;BME280;6924;52.122;9.952;2022-11-20T03:33:37;100183.00;;;-4.98;89.25
13705;BME280;6924;52.122;9.952;2022-11-20T03:36:06;100189.97;;;-4.95;89.37
13705;BME280;6924;52.122;9.952;2022-11-20T03:38:33;100183.38;;;-4.94;89.92
13705;BME280;6924;52.122;9.952;2022-11-20T03:41:00;100184.00;;;-4.92;89.74
13705;BME280;6924;52.122;9.952;2022-11-20T03:43:27;100184.47;;;-4.95;89.73
13705;BME280;6924;52.122;9.952;2022-11-20T03:45:54;100186.59;;;-4.97;89.81
13705;BME280;6924;52.122;9.952;2022-11-20T03:48:21;100178.13;;;-5.03;89.53
13705;BME280;6924;52.122;9.952;2022-11-20T03:50:48;100184.69;;;-4.97;89.85
13705;BME280;6924;52.122;9.952;2022-11-20T03:53:15;100173.84;;;-4.99;89.50
13705;BME280;6924;52.122;9.952;2022-11-20T03:55:42;100173.84;;;-4.99;89.43
13705;BME280;6924;52.122;9.952;2022-11-20T03:58:09;100179.47;;;-5.12;89.73
13705;BME280;6924;52.122;9.952;2022-11-20T04:00:36;100169.06;;;-5.10;90.07
13705;BME280;6924;52.122;9.952;2022-11-20T04:03:02;100174.41;;;-5.15;89.93
13705;BME280;6924;52.122;9.952;2022-11-20T04:05:29;100172.69;;;-5.16;90.27
13705;BME280;6924;52.122;9.952;2022-11-20T04:07:57;100176.31;;;-5.15;90.00
13705;BME280;6924;52.122;9.952;2022-11-20T04:10:23;100173.78;;;-5.17;90.14
13705;BME280;6924;52.122;9.952;2022-11-20T04:12:50;100166.13;;;-5.15;90.44
13705;BME280;6924;52.122;9.952;2022-11-20T04:15:16;100154.88;;;-5.13;90.16
13705;BME280;6924;52.122;9.952;2022-11-20T04:17:43;100151.94;;;-5.19;90.26
13705;BME280;6924;52.122;9.952;2022-11-20T04:20:10;100157.84;;;-5.15;91.11
13705;BME280;6924;52.122;9.952;2022-11-20T04:22:36;100157.81;;;-5.08;90.59
13705;BME280;6924;52.122;9.952;2022-11-20T04:25:05;100160.75;;;-5.03;90.40
13705;BME280;6924;52.122;9.952;2022-11-20T04:27:31;100156.09;;;-5.09;90.87
13705;BME280;6924;52.122;9.952;2022-11-20T04:29:58;100169.84;;;-5.03;91.13
13705;BME280;6924;52.122;9.952;2022-11-20T04:32:24;100167.72;;;-5.01;90.63
13705;BME280;6924;52.122;9.952;2022-11-20T04:34:51;100159.44;;;-5.01;90.43
13705;BME280;6924;52.122;9.952;2022-11-20T04:37:17;100165.19;;;-5.02;90.79
13705;BME280;6924;52.122;9.952;2022-11-20T04:39:44;100163.06;;;-5.00;90.76
13705;BME280;6924;52.122;9.952;2022-11-20T04:42:12;100159.22;;;-4.99;90.19
13705;BME280;6924;52.122;9.952;2022-11-20T04:44:57;100159.69;;;-5.02;89.63
13705;BME280;6924;52.122;9.952;2022-11-20T04:47:23;100159.91;;;-5.04;89.86
13705;BME280;6924;52.122;9.952;2022-11-20T04:49:50;100163.13;;;-5.07;90.20
13705;BME280;6924;52.122;9.952;2022-11-20T04:52:16;100156.50;;;-5.06;90.12
13705;BME280;6924;52.122;9.952;2022-11-20T04:54:43;100162.03;;;-5.06;90.08
13705;BME280;6924;52.122;9.952;2022-11-20T04:57:09;100154.59;;;-5.05;90.28
13705;BME280;6924;52.122;9.952;2022-11-20T04:59:37;100156.97;;;-5.09;90.23
13705;BME280;6924;52.122;9.952;2022-11-20T05:02:04;100149.31;;;-5.07;89.81
13705;BME280;6924;52.122;9.952;2022-11-20T05:04:30;100153.59;;;-5.11;89.77
13705;BME280;6924;52.122;9.952;2022-11-20T05:06:57;100151.88;;;-5.12;89.91
13705;BME280;6924;52.122;9.952;2022-11-20T05:09:23;100143.84;;;-5.13;90.29
13705;BME280;6924;52.122;9.952;2022-11-20T05:11:50;100147.19;;;-5.05;90.33
13705;BME280;6924;52.122;9.952;2022-11-20T05:14:16;100149.50;;;-5.02;90.73
13705;BME280;6924;52.122;9.952;2022-11-20T05:16:44;100149.91;;;-4.98;91.18
13705;BME280;6924;52.122;9.952;2022-11-20T05:19:11;100150.28;;;-4.94;91.48
13705;BME280;6924;52.122;9.952;2022-11-20T05:21:37;100145.59;;;-4.94;91.72
13705;BME280;6924;52.122;9.952;2022-11-20T05:24:04;100149.22;;;-4.93;91.58
13705;BME280;6924;52.122;9.952;2022-11-20T05:26:32;100143.47;;;-4.92;91.88
13705;BME280;6924;52.122;9.952;2022-11-20T05:28:58;100145.78;;;-4.89;91.60
13705;BME280;6924;52.122;9.952;2022-11-20T05:31:26;100138.34;;;-4.88;92.35
13705;BME280;6924;52.122;9.952;2022-11-20T05:33:55;100132.84;;;-4.88;91.64
13705;BME280;6924;52.122;9.952;2022-11-20T05:36:22;100130.50;;;-4.85;91.43
13705;BME280;6924;52.122;9.952;2022-11-20T05:38:49;100130.75;;;-4.93;91.38
13705;BME280;6924;52.122;9.952;2022-11-20T05:41:17;100133.94;;;-4.89;91.34
13705;BME280;6924;52.122;9.952;2022-11-20T05:43:48;100139.44;;;-4.89;91.08
13705;BME280;6924;52.122;9.952;2022-11-20T05:46:18;100133.97;;;-4.96;90.92
13705;BME280;6924;52.122;9.952;2022-11-20T05:48:46;100134.56;;;-4.94;91.18
13705;BME280;6924;52.122;9.952;2022-11-20T05:51:17;100130.97;;;-4.94;90.84
13705;BME280;6924;52.122;9.952;2022-11-20T05:53:43;100133.78;;;-5.01;90.63
13705;BME280;6924;52.122;9.952;2022-11-20T05:56:12;100134.91;;;-5.09;90.60
13705;BME280;6924;52.122;9.952;2022-11-20T05:58:39;100134.44;;;-5.06;90.30
13705;BME280;6924;52.122;9.952;2022-11-20T06:01:07;100133.19;;;-5.10;90.21
13705;BME280;6924;52.122;9.952;2022-11-20T06:03:34;100136.22;;;-5.11;90.36
13705;BME280;6924;52.122;9.952;2022-11-20T06:06:01;100131.13;;;-5.14;90.66
13705;BME280;6924;52.122;9.952;2022-11-20T06:08:30;100128.31;;;-5.08;90.06
13705;BME280;6924;52.122;9.952;2022-11-20T06:10:57;100123.88;;;-5.09;90.51
13705;BME280;6924;52.122;9.952;2022-11-20T06:13:24;100130.44;;;-5.10;90.95
13705;BME280;6924;52.122;9.952;2022-11-20T06:15:51;100131.06;;;-5.08;91.84
13705;BME280;6924;52.122;9.952;2022-11-20T06:18:18;100128.94;;;-5.06;91.48
13705;BME280;6924;52.122;9.952;2022-11-20T06:20:46;100128.72;;;-5.04;92.05
13705;BME280;6924;52.122;9.952;2022-11-20T06:23:12;100128.94;;;-5.06;91.93
13705;BME280;6924;52.122;9.952;2022-11-20T06:25:41;100130.22;;;-5.08;92.58
13705;BME280;6924;52.122;9.952;2022-11-20T06:28:08;100135.69;;;-5.02;92.06
13705;BME280;6924;52.122;9.952;2022-11-20T06:30:35;100130.22;;;-5.08;92.18
13705;BME280;6924;52.122;9.952;2022-11-20T06:33:02;100138.56;;;-5.15;92.07
13705;BME280;6924;52.122;9.952;2022-11-20T06:35:28;100131.28;;;-5.09;91.93
13705;BME280;6924;52.122;9.952;2022-11-20T06:37:55;100129.34;;;-5.02;92.43
13705;BME280;6924;52.122;9.952;2022-11-20T06:40:22;100130.75;;;-4.93;92.00
13705;BME280;6924;52.122;9.952;2022-11-20T06:42:50;100126.69;;;-4.90;93.12
13705;BME280;6924;52.122;9.952;2022-11-20T06:45:16;100120.72;;;-4.87;92.94
13705;BME280;6924;52.122;9.952;2022-11-20T06:47:43;100113.47;;;-4.82;93.50
13705;BME280;6924;52.122;9.952;2022-11-20T06:50:09;100112.91;;;-4.90;93.37
13705;BME280;6924;52.122;9.952;2022-11-20T06:52:36;100114.00;;;-4.91;94.06
13705;BME280;6924;52.122;9.952;2022-11-20T06:55:03;100115.50;;;-4.95;95.13
13705;BME280;6924;52.122;9.952;2022-11-20T06:57:29;100106.72;;;-4.86;95.03
13705;BME280;6924;52.122;9.952;2022-11-20T06:59:57;100109.59;;;-4.74;95.22
13705;BME280;6924;52.122;9.952;2022-11-20T07:02:23;100110.44;;;-4.73;95.26
13705;BME280;6924;52.122;9.952;2022-11-20T07:04:50;100111.69;;;-4.69;95.16
13705;BME280;6924;52.122;9.952;2022-11-20T07:07:16;100113.69;;;-4.58;95.33
13705;BME280;6924;52.122;9.952;2022-11-20T07:09:43;100120.00;;;-4.51;94.96
13705;BME280;6924;52.122;9.952;2022-11-20T07:12:09;100107.59;;;-4.42;94.92
13705;BME280;6924;52.122;9.952;2022-11-20T07:14:36;100104.97;;;-4.37;95.27
13705;BME280;6924;52.122;9.952;2022-11-20T07:17:04;100103.00;;;-4.29;95.58
13705;BME280;6924;52.122;9.952;2022-11-20T07:19:30;100107.84;;;-4.25;94.99
13705;BME280;6924;52.122;9.952;2022-11-20T07:21:57;100099.72;;;-4.20;95.04
13705;BME280;6924;52.122;9.952;2022-11-20T07:24:23;100107.91;;;-4.13;94.93
13705;BME280;6924;52.122;9.952;2022-11-20T07:26:50;100115.38;;;-4.13;95.33
13705;BME280;6924;52.122;9.952;2022-11-20T07:29:16;100109.78;;;-4.07;95.29
13705;BME280;6924;52.122;9.952;2022-11-20T07:31:43;100101.88;;;-4.03;96.09
13705;BME280;6924;52.122;9.952;2022-11-20T07:34:11;100099.13;;;-4.03;96.01
13705;BME280;6924;52.122;9.952;2022-11-20T07:36:37;100104.09;;;-3.93;95.46
13705;BME280;6924;52.122;9.952;2022-11-20T07:39:04;100106.16;;;-3.89;95.86
13705;BME280;6924;52.122;9.952;2022-11-20T07:41:31;100098.19;;;-3.79;96.05
13705;BME280;6924;52.122;9.952;2022-11-20T07:43:57;100103.63;;;-3.72;96.81
13705;BME280;6924;52.122;9.952;2022-11-20T07:46:24;100116.03;;;-3.63;96.19
13705;BME280;6924;52.122;9.952;2022-11-20T07:48:50;100117.03;;;-3.57;96.22
13705;BME280;6924;52.122;9.952;2022-11-20T07:51:18;100106.94;;;-3.51;96.25
13705;BME280;6924;52.122;9.952;2022-11-20T07:53:45;100109.84;;;-3.46;95.78
13705;BME280;6924;52.122;9.952;2022-11-20T07:56:11;100109.63;;;-3.45;95.37
13705;BME280;6924;52.122;9.952;2022-11-20T07:58:39;100103.88;;;-3.43;95.42
13705;BME280;6924;52.122;9.952;2022-11-20T08:01:07;100101.72;;;-3.41;95.90
13705;BME280;6924;52.122;9.952;2022-11-20T08:03:33;100110.38;;;-3.38;95.79
13705;BME280;6924;52.122;9.952;2022-11-20T08:06:03;100109.44;;;-3.32;96.71
13705;BME280;6924;52.122;9.952;2022-11-20T08:08:31;100109.00;;;-3.28;96.40
13705;BME280;6924;52.122;9.952;2022-11-20T08:10:58;100107.88;;;-3.27;96.10
13705;BME280;6924;52.122;9.952;2022-11-20T08:13:45;100103.19;;;-3.27;95.78
13705;BME280;6924;52.122;9.952;2022-11-20T08:16:29;100099.97;;;-3.24;95.28
13705;BME280;6924;52.122;9.952;2022-11-20T08:18:55;100102.03;;;-3.19;95.59
13705;BME280;6924;52.122;9.952;2022-11-20T08:21:22;100115.88;;;-3.19;95.12
13705;BME280;6924;52.122;9.952;2022-11-20T08:23:50;100109.97;;;-3.11;94.89
13705;BME280;6924;52.122;9.952;2022-11-20T08:26:16;100106.28;;;-3.05;94.51
13705;BME280;6924;52.122;9.952;2022-11-20T08:28:43;100119.03;;;-3.04;94.08
13705;BME280;6924;52.122;9.952;2022-11-20T08:31:10;100104.22;;;-3.09;93.98
13705;BME280;6924;52.122;9.952;2022-11-20T08:33:36;100108.06;;;-3.10;94.10
13705;BME280;6924;52.122;9.952;2022-11-20T08:36:04;100108.44;;;-3.07;94.39
13705;BME280;6924;52.122;9.952;2022-11-20T08:38:31;100110.25;;;-3.01;93.96
13705;BME280;6924;52.122;9.952;2022-11-20T08:41:00;100111.97;;;-3.00;93.63
13705;BME280;6924;52.122;9.952;2022-11-20T08:43:44;100111.47;;;-2.97;93.67
13705;BME280;6924;52.122;9.952;2022-11-20T08:46:11;100116.53;;;-2.94;93.43
13705;BME280;6924;52.122;9.952;2022-11-20T08:48:38;100120.84;;;-2.98;93.52
13705;BME280;6924;52.122;9.952;2022-11-20T08:51:05;100123.50;;;-2.91;94.59
13705;BME280;6924;52.122;9.952;2022-11-20T08:53:31;100126.78;;;-2.82;94.74
13705;BME280;6924;52.122;9.952;2022-11-20T08:55:59;100129.44;;;-2.76;94.54
13705;BME280;6924;52.122;9.952;2022-11-20T08:58:26;100131.84;;;-2.79;94.09
13705;BME280;6924;52.122;9.952;2022-11-20T09:00:53;100121.63;;;-2.79;93.37
13705;BME280;6924;52.122;9.952;2022-11-20T09:03:19;100118.00;;;-2.79;93.69
13705;BME280;6924;52.122;9.952;2022-11-20T09:05:46;100122.44;;;-2.78;93.85
13705;BME280;6924;52.122;9.952;2022-11-20T09:08:13;100125.97;;;-2.71;94.13
13705;BME280;6924;52.122;9.952;2022-11-20T09:10:39;100115.97;;;-2.60;94.36
13705;BME280;6924;52.122;9.952;2022-11-20T09:13:07;100113.81;;;-2.58;94.17
13705;BME280;6924;52.122;9.952;2022-11-20T09:15:34;100108.75;;;-2.61;94.69
13705;BME280;6924;52.122;9.952;2022-11-20T09:18:02;100115.16;;;-2.49;94.14
13705;BME280;6924;52.122;9.952;2022-11-20T09:20:29;100115.03;;;-2.54;93.96
13705;BME280;6924;52.122;9.952;2022-11-20T09:22:57;100116.00;;;-2.48;94.38
13705;BME280;6924;52.122;9.952;2022-11-20T09:25:24;100110.56;;;-2.43;93.78
13705;BME280;6924;52.122;9.952;2022-11-20T09:27:54;100108.28;;;-2.35;93.29
13705;BME280;6924;52.122;9.952;2022-11-20T09:30:22;100110.84;;;-2.33;92.79
13705;BME280;6924;52.122;9.952;2022-11-20T09:32:49;100107.09;;;-2.27;93.29
13705;BME280;6924;52.122;9.952;2022-11-20T09:35:16;100100.34;;;-2.31;93.24
13705;BME280;6924;52.122;9.952;2022-11-20T09:37:43;100094.91;;;-2.26;93.13
13705;BME280;6924;52.122;9.952;2022-11-20T09:40:18;100087.91;;;-2.17;93.28
13705;BME280;6924;52.122;9.952;2022-11-20T09:42:48;100092.59;;;-2.05;93.15
13705;BME280;6924;52.122;9.952;2022-11-20T09:45:39;100071.72;;;-1.96;93.09
13705;BME280;6924;52.122;9.952;2022-11-20T09:48:33;100074.50;;;-1.96;92.67
13705;BME280;6924;52.122;9.952;2022-11-20T09:51:06;100056.25;;;-2.09;92.30
13705;BME280;6924;52.122;9.952;2022-11-20T09:53:46;100066.22;;;-2.08;92.00
13705;BME280;6924;52.122;9.952;2022-11-20T09:56:19;100078.75;;;-2.05;91.86
13705;BME280;6924;52.122;9.952;2022-11-20T09:58:49;100082.84;;;-2.08;92.54
13705;BME280;6924;52.122;9.952;2022-11-20T10:01:19;100087.69;;;-2.15;93.51
13705;BME280;6924;52.122;9.952;2022-11-20T10:03:53;100077.94;;;-2.18;92.35
13705;BME280;6924;52.122;9.952;2022-11-20T10:06:27;100084.56;;;-2.07;92.89
13705;BME280;6924;52.122;9.952;2022-11-20T10:09:01;100073.06;;;-1.87;92.49
13705;BME280;6924;52.122;9.952;2022-11-20T10:11:45;100068.44;;;-1.70;92.21
13705;BME280;6924;52.122;9.952;2022-11-20T10:14:20;100060.56;;;-1.61;91.12
13705;BME280;6924;52.122;9.952;2022-11-20T10:17:00;100061.28;;;-1.66;90.74
13705;BME280;6924;52.122;9.952;2022-11-20T10:19:45;100053.81;;;-1.65;90.28
13705;BME280;6924;52.122;9.952;2022-11-20T10:22:25;100044.94;;;-1.50;90.23
13705;BME280;6924;52.122;9.952;2022-11-20T10:24:56;100047.16;;;-1.35;90.03
13705;BME280;6924;52.122;9.952;2022-11-20T10:27:36;100050.31;;;-1.15;88.74
13705;BME280;6924;52.122;9.952;2022-11-20T10:30:09;100059.06;;;-1.06;86.83
13705;BME280;6924;52.122;9.952;2022-11-20T10:32:39;100058.75;;;-0.93;86.75
13705;BME280;6924;52.122;9.952;2022-11-20T10:35:16;100066.50;;;-0.78;85.51
13705;BME280;6924;52.122;9.952;2022-11-20T10:37:47;100071.03;;;-0.72;85.04
13705;BME280;6924;52.122;9.952;2022-11-20T10:40:22;100068.94;;;-0.48;84.72
13705;BME280;6924;52.122;9.952;2022-11-20T10:42:51;100078.69;;;-0.45;81.47
13705;BME280;6924;52.122;9.952;2022-11-20T10:45:31;100086.94;;;-0.84;77.76
13705;BME280;6924;52.122;9.952;2022-11-20T10:48:10;100080.53;;;-0.51;82.05
13705;BME280;6924;52.122;9.952;2022-11-20T10:50:43;100076.16;;;-0.30;82.84
13705;BME280;6924;52.122;9.952;2022-11-20T10:53:19;100068.19;;;-0.04;82.84
13705;BME280;6924;52.122;9.952;2022-11-20T10:55:56;100066.38;;;0.07;81.74
13705;BME280;6924;52.122;9.952;2022-11-20T10:58:31;100063.13;;;0.15;82.23
13705;BME280;6924;52.122;9.952;2022-11-20T11:01:05;100057.47;;;0.27;82.23
13705;BME280;6924;52.122;9.952;2022-11-20T11:03:33;100054.53;;;0.38;82.01
13705;BME280;6924;52.122;9.952;2022-11-20T11:06:06;100054.91;;;0.47;81.38
13705;BME280;6924;52.122;9.952;2022-11-20T11:08:37;100051.09;;;0.53;80.47
13705;BME280;6924;52.122;9.952;2022-11-20T11:11:18;100052.50;;;0.56;80.92
13705;BME280;6924;52.122;9.952;2022-11-20T11:13:46;100049.78;;;0.61;81.24
13705;BME280;6924;52.122;9.952;2022-11-20T11:16:20;100042.53;;;0.60;80.93
13705;BME280;6924;52.122;9.952;2022-11-20T11:18:49;100034.47;;;0.64;80.70
13705;BME280;6924;52.122;9.952;2022-11-20T11:21:21;100028.66;;;0.65;80.09
13705;BME280;6924;52.122;9.952;2022-11-20T11:23:57;100028.91;;;0.64;80.63
13705;BME280;6924;52.122;9.952;2022-11-20T11:26:25;100027.28;;;0.68;80.45
13705;BME280;6924;52.122;9.952;2022-11-20T11:28:56;100021.44;;;0.64;79.64
13705;BME280;6924;52.122;9.952;2022-11-20T11:31:25;100008.59;;;0.63;79.15
13705;BME280;6924;52.122;9.952;2022-11-20T11:34:03;100010.91;;;0.71;78.59
13705;BME280;6924;52.122;9.952;2022-11-20T11:36:30;100003.75;;;0.80;79.36
13705;BME280;6924;52.122;9.952;2022-11-20T11:38:58;100007.31;;;0.71;78.78
13705;BME280;6924;52.122;9.952;2022-11-20T11:41:28;100009.59;;;0.79;77.89
13705;BME280;6924;52.122;9.952;2022-11-20T11:43:58;100002.41;;;0.56;74.49
13705;BME280;6924;52.122;9.952;2022-11-20T11:46:52;100007.03;;;0.45;75.72
13705;BME280;6924;52.122;9.952;2022-11-20T11:49:21;99997.16;;;0.59;75.63
13705;BME280;6924;52.122;9.952;2022-11-20T11:51:59;100005.06;;;0.46;75.03
13705;BME280;6924;52.122;9.952;2022-11-20T11:54:31;100007.19;;;0.33;74.09
13705;BME280;6924;52.122;9.952;2022-11-20T11:57:01;100008.97;;;0.45;74.08
13705;BME280;6924;52.122;9.952;2022-11-20T11:59:43;100002.16;;;0.57;74.23
13705;BME280;6924;52.122;9.952;2022-11-20T12:02:18;99995.72;;;0.57;73.97
13705;BME280;6924;52.122;9.952;2022-11-20T12:04:54;99993.09;;;0.72;72.88
13705;BME280;6924;52.122;9.952;2022-11-20T12:07:30;99992.63;;;0.80;73.26
13705;BME280;6924;52.122;9.952;2022-11-20T12:10:02;99984.50;;;0.74;72.09
13705;BME280;6924;52.122;9.952;2022-11-20T12:12:32;99974.81;;;0.81;70.67
13705;BME280;6924;52.122;9.952;2022-11-20T12:15:04;99977.66;;;0.87;70.92
13705;BME280;6924;52.122;9.952;2022-11-20T12:17:31;99978.59;;;0.97;71.63
13705;BME280;6924;52.122;9.952;2022-11-20T12:19:58;99971.09;;;1.03;71.74
13705;BME280;6924;52.122;9.952;2022-11-20T12:22:31;99976.94;;;1.01;72.23
13705;BME280;6924;52.122;9.952;2022-11-20T12:25:04;99978.13;;;1.11;72.73
13705;BME280;6924;52.122;9.952;2022-11-20T12:28:01;99982.63;;;1.17;71.70
13705;BME280;6924;52.122;9.952;2022-11-20T12:30:33;99979.22;;;1.10;74.12
13705;BME280;6924;52.122;9.952;2022-11-20T12:33:30;99967.28;;;1.14;74.17
13705;BME280;6924;52.122;9.952;2022-11-20T12:36:17;99972.91;;;1.19;74.75
13705;BME280;6924;52.122;9.952;2022-11-20T12:39:02;99967.34;;;1.19;74.13
13705;BME280;6924;52.122;9.952;2022-11-20T12:41:48;99969.56;;;1.22;74.34
13705;BME280;6924;52.122;9.952;2022-11-20T12:45:00;99970.75;;;1.32;73.28
13705;BME280;6924;52.122;9.952;2022-11-20T12:47:56;99974.94;;;1.34;73.61
13705;BME280;6924;52.122;9.952;2022-11-20T12:50:32;99975.72;;;1.24;73.56
13705;BME280;6924;52.122;9.952;2022-11-20T12:53:06;99968.75;;;1.22;74.39
13705;BME280;6924;52.122;9.952;2022-11-20T12:55:43;99963.16;;;1.22;74.71
13705;BME280;6924;52.122;9.952;2022-11-20T12:58:20;99964.00;;;1.22;74.57
13705;BME280;6924;52.122;9.952;2022-11-20T13:00:58;99961.25;;;1.28;73.91
13705;BME280;6924;52.122;9.952;2022-11-20T13:03:40;99952.63;;;1.29;74.50
13705;BME280;6924;52.122;9.952;2022-11-20T13:06:13;99952.88;;;1.28;74.30
13705;BME280;6924;52.122;9.952;2022-11-20T13:08:43;99947.88;;;1.30;75.25
13705;BME280;6924;52.122;9.952;2022-11-20T13:11:18;99951.94;;;1.12;73.80
13705;BME280;6924;52.122;9.952;2022-11-20T13:14:04;99951.88;;;1.01;73.69
13705;BME280;6924;52.122;9.952;2022-11-20T13:16:37;99950.28;;;1.11;72.55